sensor_id;sensor_type;location;lat;lon;timestamp;P1;durP1;ratioP1;P2;durP2;ratioP2
48034;SDS011;33812;46.480;6.834;2024-02-23T00:02:57;0.20;;;0.20;;
48034;SDS011;33812;46.480;6.834;2024-02-23T00:06:59;0.30;;;0.30;;
48034;SDS011;33812;46.480;6.834;2024-02-23T00:11:03;0.73;;;0.30;;
48034;SDS011;33812;46.480;6.834;2024-02-23T00:15:06;0.50;;;0.22;;
48034;SDS011;33812;46.480;6.834;2024-02-23T00:19:10;0.55;;;0.30;;
48034;SDS011;33812;46.480;6.834;2024-02-23T00:23:12;0.25;;;0.20;;
48034;SDS011;33812;46.480;6.834;2024-02-23T00:27:13;0.45;;;0.30;;
48034;SDS011;33812;46.480;6.834;2024-02-23T00:31:15;0.28;;;0.20;;
48034;SDS011;33812;46.480;6.834;2024-02-23T00:35:18;0.20;;;0.20;;
48034;SDS011;33812;46.480;6.834;2024-02-23T00:39:20;0.50;;;0.30;;
48034;SDS011;33812;46.480;6.834;2024-02-23T00:43:23;0.28;;;0.20;;
48034;SDS011;33812;46.480;6.834;2024-02-23T00:47:26;0.40;;;0.40;;
48034;SDS011;33812;46.480;6.834;2024-02-23T00:51:29;0.75;;;0.20;;
48034;SDS011;33812;46.480;6.834;2024-02-23T00:55:31;0.47;;;0.22;;
48034;SDS011;33812;46.480;6.834;2024-02-23T00:59:33;0.25;;;0.20;;
48034;SDS011;33812;46.480;6.834;2024-02-23T01:03:34;0.30;;;0.20;;
48034;SDS011;33812;46.480;6.834;2024-02-23T01:07:38;0.20;;;0.20;;
48034;SDS011;33812;46.480;6.834;2024-02-23T01:11:39;0.85;;;0.50;;
48034;SDS011;33812;46.480;6.834;2024-02-23T01:15:41;0.68;;;0.40;;
48034;SDS011;33812;46.480;6.834;2024-02-23T01:19:43;0.50;;;0.30;;
48034;SDS011;33812;46.480;6.834;2024-02-23T01:23:46;0.25;;;0.25;;
48034;SDS011;33812;46.480;6.834;2024-02-23T01:27:48;0.77;;;0.20;;
48034;SDS011;33812;46.480;6.834;2024-02-23T01:31:50;0.73;;;0.22;;
48034;SDS011;33812;46.480;6.834;2024-02-23T01:35:52;1.85;;;0.30;;
48034;SDS011;33812;46.480;6.834;2024-02-23T01:39:55;0.32;;;0.20;;
48034;SDS011;33812;46.480;6.834;2024-02-23T01:43:57;0.30;;;0.20;;
48034;SDS011;33812;46.480;6.834;2024-02-23T01:47:58;0.40;;;0.35;;
48034;SDS011;33812;46.480;6.834;2024-02-23T01:52:02;0.20;;;0.20;;
48034;SDS011;33812;46.480;6.834;2024-02-23T01:56:07;0.43;;;0.30;;
48034;SDS011;33812;46.480;6.834;2024-02-23T02:00:10;0.68;;;0.22;;
48034;SDS011;33812;46.480;6.834;2024-02-23T02:04:16;0.98;;;0.20;;
48034;SDS011;33812;46.480;6.834;2024-02-23T02:08:18;0.73;;;0.30;;
48034;SDS011;33812;46.480;6.834;2024-02-23T02:12:27;0.22;;;0.22;;
48034;SDS011;33812;46.480;6.834;2024-02-23T02:16:29;0.88;;;0.40;;
48034;SDS011;33812;46.480;6.834;2024-02-23T02:20:32;1.42;;;0.30;;
48034;SDS011;33812;46.480;6.834;2024-02-23T02:24:34;0.28;;;0.15;;
48034;SDS011;33812;46.480;6.834;2024-02-23T02:28:37;0.25;;;0.20;;
48034;SDS011;33812;46.480;6.834;2024-02-23T02:32:39;0.20;;;0.20;;
48034;SDS011;33812;46.480;6.834;2024-02-23T02:36:41;0.30;;;0.30;;
48034;SDS011;33812;46.480;6.834;2024-02-23T02:40:42;0.30;;;0.20;;
48034;SDS011;33812;46.480;6.834;2024-02-23T02:44:45;0.38;;;0.20;;
48034;SDS011;33812;46.480;6.834;2024-02-23T02:48:47;1.38;;;0.40;;
48034;SDS011;33812;46.480;6.834;2024-02-23T02:52:49;0.63;;;0.40;;
48034;SDS011;33812;46.480;6.834;2024-02-23T02:56:50;0.38;;;0.30;;
48034;SDS011;33812;46.480;6.834;2024-02-23T03:00:56;0.45;;;0.30;;
48034;SDS011;33812;46.480;6.834;2024-02-23T03:04:58;0.20;;;0.20;;
48034;SDS011;33812;46.480;6.834;2024-02-23T03:09:00;0.30;;;0.30;;
48034;SDS011;33812;46.480;6.834;2024-02-23T03:13:02;0.40;;;0.30;;
48034;SDS011;33812;46.480;6.834;2024-02-23T03:17:06;0.32;;;0.20;;
48034;SDS011;33812;46.480;6.834;2024-02-23T03:21:08;0.60;;;0.20;;
48034;SDS011;33812;46.480;6.834;2024-02-23T03:25:10;0.75;;;0.35;;
48034;SDS011;33812;46.480;6.834;2024-02-23T03:29:12;0.65;;;0.30;;
48034;SDS011;33812;46.480;6.834;2024-02-23T03:33:15;0.82;;;0.30;;
48034;SDS011;33812;46.480;6.834;2024-02-23T03:37:17;0.63;;;0.30;;
48034;SDS011;33812;46.480;6.834;2024-02-23T03:41:20;0.68;;;0.40;;
48034;SDS011;33812;46.480;6.834;2024-02-23T03:45:22;0.32;;;0.20;;
48034;SDS011;33812;46.480;6.834;2024-02-23T03:49:25;0.30;;;0.25;;
48034;SDS011;33812;46.480;6.834;2024-02-23T03:53:27;3.70;;;0.32;;
48034;SDS011;33812;46.480;6.834;2024-02-23T03:57:29;0.60;;;0.30;;
48034;SDS011;33812;46.480;6.834;2024-02-23T04:01:30;0.35;;;0.30;;
48034;SDS011;33812;46.480;6.834;2024-02-23T04:05:34;1.42;;;0.45;;
48034;SDS011;33812;46.480;6.834;2024-02-23T04:09:36;0.57;;;0.20;;
48034;SDS011;33812;46.480;6.834;2024-02-23T04:13:38;3.88;;;0.35;;
48034;SDS011;33812;46.480;6.834;2024-02-23T04:17:39;1.00;;;0.40;;
48034;SDS011;33812;46.480;6.834;2024-02-23T04:21:43;0.80;;;0.40;;
48034;SDS011;33812;46.480;6.834;2024-02-23T04:25:44;1.45;;;0.40;;
48034;SDS011;33812;46.480;6.834;2024-02-23T04:29:46;0.13;;;0.13;;
48034;SDS011;33812;46.480;6.834;2024-02-23T04:33:48;1.10;;;0.43;;
48034;SDS011;33812;46.480;6.834;2024-02-23T04:37:52;0.30;;;0.20;;
48034;SDS011;33812;46.480;6.834;2024-02-23T04:41:54;0.20;;;0.20;;
48034;SDS011;33812;46.480;6.834;2024-02-23T04:45:55;1.15;;;0.50;;
48034;SDS011;33812;46.480;6.834;2024-02-23T04:49:57;0.50;;;0.30;;
48034;SDS011;33812;46.480;6.834;2024-02-23T04:54:02;0.75;;;0.35;;
48034;SDS011;33812;46.480;6.834;2024-02-23T04:58:04;0.60;;;0.30;;
48034;SDS011;33812;46.480;6.834;2024-02-23T05:02:07;0.55;;;0.30;;
48034;SDS011;33812;46.480;6.834;2024-02-23T05:06:09;1.38;;;0.50;;
48034;SDS011;33812;46.480;6.834;2024-02-23T05:10:12;0.50;;;0.30;;
48034;SDS011;33812;46.480;6.834;2024-02-23T05:14:14;1.42;;;0.32;;
48034;SDS011;33812;46.480;6.834;2024-02-23T05:18:16;1.33;;;0.25;;
48034;SDS011;33812;46.480;6.834;2024-02-23T05:22:17;0.57;;;0.35;;
48034;SDS011;33812;46.480;6.834;2024-02-23T05:26:21;0.55;;;0.28;;
48034;SDS011;33812;46.480;6.834;2024-02-23T05:30:23;1.13;;;0.40;;
48034;SDS011;33812;46.480;6.834;2024-02-23T05:34:27;0.75;;;0.40;;
48034;SDS011;33812;46.480;6.834;2024-02-23T05:38:29;0.80;;;0.40;;
48034;SDS011;33812;46.480;6.834;2024-02-23T05:42:33;5.75;;;0.40;;
48034;SDS011;33812;46.480;6.834;2024-02-23T05:46:35;3.00;;;0.30;;
48034;SDS011;33812;46.480;6.834;2024-02-23T05:50:37;0.85;;;0.45;;
48034;SDS011;33812;46.480;6.834;2024-02-23T05:54:39;3.50;;;0.40;;
48034;SDS011;33812;46.480;6.834;2024-02-23T05:58:42;0.47;;;0.30;;
48034;SDS011;33812;46.480;6.834;2024-02-23T06:02:44;0.38;;;0.30;;
48034;SDS011;33812;46.480;6.834;2024-02-23T06:06:46;0.60;;;0.35;;
48034;SDS011;33812;46.480;6.834;2024-02-23T06:10:47;1.60;;;0.52;;
48034;SDS011;33812;46.480;6.834;2024-02-23T06:14:51;1.40;;;0.40;;
48034;SDS011;33812;46.480;6.834;2024-02-23T06:18:53;1.52;;;0.40;;
48034;SDS011;33812;46.480;6.834;2024-02-23T06:22:54;6.35;;;0.75;;
48034;SDS011;33812;46.480;6.834;2024-02-23T06:26:56;4.20;;;0.40;;
48034;SDS011;33812;46.480;6.834;2024-02-23T06:30:59;2.40;;;0.68;;
48034;SDS011;33812;46.480;6.834;2024-02-23T06:35:01;6.72;;;0.95;;
48034;SDS011;33812;46.480;6.834;2024-02-23T06:39:03;7.03;;;0.90;;
48034;SDS011;33812;46.480;6.834;2024-02-23T06:43:05;4.70;;;1.15;;
48034;SDS011;33812;46.480;6.834;2024-02-23T06:47:08;16.10;;;1.73;;
48034;SDS011;33812;46.480;6.834;2024-02-23T06:51:10;10.13;;;2.30;;
48034;SDS011;33812;46.480;6.834;2024-02-23T06:55:12;9.45;;;1.50;;
48034;SDS011;33812;46.480;6.834;2024-02-23T06:59:14;7.90;;;1.30;;
48034;SDS011;33812;46.480;6.834;2024-02-23T07:03:19;8.82;;;1.20;;
48034;SDS011;33812;46.480;6.834;2024-02-23T07:07:21;4.88;;;0.82;;
48034;SDS011;33812;46.480;6.834;2024-02-23T07:11:22;15.90;;;1.98;;
48034;SDS011;33812;46.480;6.834;2024-02-23T07:15:24;10.23;;;1.30;;
48034;SDS011;33812;46.480;6.834;2024-02-23T07:19:28;19.85;;;1.17;;
48034;SDS011;33812;46.480;6.834;2024-02-23T07:23:30;9.07;;;1.30;;
48034;SDS011;33812;46.480;6.834;2024-02-23T07:27:31;8.05;;;0.95;;
48034;SDS011;33812;46.480;6.834;2024-02-23T07:31:34;7.32;;;0.90;;
48034;SDS011;33812;46.480;6.834;2024-02-23T07:35:37;6.78;;;1.40;;
48034;SDS011;33812;46.480;6.834;2024-02-23T07:39:39;6.13;;;1.00;;
48034;SDS011;33812;46.480;6.834;2024-02-23T07:43:41;7.32;;;1.10;;
48034;SDS011;33812;46.480;6.834;2024-02-23T07:47:42;6.10;;;0.82;;
48034;SDS011;33812;46.480;6.834;2024-02-23T07:51:45;3.30;;;0.90;;
48034;SDS011;33812;46.480;6.834;2024-02-23T07:55:48;4.15;;;1.10;;
48034;SDS011;33812;46.480;6.834;2024-02-23T07:59:50;6.07;;;0.82;;
48034;SDS011;33812;46.480;6.834;2024-02-23T08:03:52;4.75;;;1.00;;
48034;SDS011;33812;46.480;6.834;2024-02-23T08:07:55;3.88;;;0.90;;
48034;SDS011;33812;46.480;6.834;2024-02-23T08:11:56;1.90;;;0.80;;
48034;SDS011;33812;46.480;6.834;2024-02-23T08:15:58;5.80;;;0.85;;
48034;SDS011;33812;46.480;6.834;2024-02-23T08:20:00;4.82;;;0.88;;
48034;SDS011;33812;46.480;6.834;2024-02-23T08:24:03;2.28;;;0.80;;
48034;SDS011;33812;46.480;6.834;2024-02-23T08:28:06;1.60;;;0.50;;
48034;SDS011;33812;46.480;6.834;2024-02-23T08:32:08;2.20;;;0.88;;
48034;SDS011;33812;46.480;6.834;2024-02-23T08:36:10;19.75;;;3.28;;
48034;SDS011;33812;46.480;6.834;2024-02-23T08:40:13;1.27;;;0.43;;
48034;SDS011;33812;46.480;6.834;2024-02-23T08:44:15;2.67;;;0.80;;
48034;SDS011;33812;46.480;6.834;2024-02-23T08:48:16;1.17;;;0.47;;
48034;SDS011;33812;46.480;6.834;2024-02-23T08:52:18;2.65;;;0.57;;
48034;SDS011;33812;46.480;6.834;2024-02-23T08:56:21;2.63;;;0.90;;
48034;SDS011;33812;46.480;6.834;2024-02-23T09:00:23;2.95;;;0.60;;
48034;SDS011;33812;46.480;6.834;2024-02-23T09:04:25;1.60;;;0.60;;
48034;SDS011;33812;46.480;6.834;2024-02-23T09:08:27;3.05;;;1.00;;
48034;SDS011;33812;46.480;6.834;2024-02-23T09:12:30;2.35;;;0.90;;
48034;SDS011;33812;46.480;6.834;2024-02-23T09:16:32;2.60;;;0.90;;
48034;SDS011;33812;46.480;6.834;2024-02-23T09:20:34;4.53;;;1.40;;
48034;SDS011;33812;46.480;6.834;2024-02-23T09:24:38;5.18;;;1.25;;
48034;SDS011;33812;46.480;6.834;2024-02-23T09:28:42;1.23;;;0.75;;
48034;SDS011;33812;46.480;6.834;2024-02-23T09:32:45;5.85;;;1.45;;
48034;SDS011;33812;46.480;6.834;2024-02-23T09:36:46;3.78;;;1.50;;
48034;SDS011;33812;46.480;6.834;2024-02-23T09:40:48;2.50;;;1.52;;
48034;SDS011;33812;46.480;6.834;2024-02-23T09:44:51;4.00;;;0.90;;
48034;SDS011;33812;46.480;6.834;2024-02-23T09:48:59;1.73;;;0.63;;
48034;SDS011;33812;46.480;6.834;2024-02-23T09:53:04;2.90;;;1.02;;
48034;SDS011;33812;46.480;6.834;2024-02-23T09:57:08;1.58;;;0.77;;
48034;SDS011;33812;46.480;6.834;2024-02-23T10:01:12;2.78;;;0.85;;
48034;SDS011;33812;46.480;6.834;2024-02-23T10:05:21;5.38;;;0.75;;
48034;SDS011;33812;46.480;6.834;2024-02-23T10:09:27;3.97;;;1.38;;
48034;SDS011;33812;46.480;6.834;2024-02-23T10:13:29;2.60;;;1.15;;
48034;SDS011;33812;46.480;6.834;2024-02-23T10:17:32;3.95;;;1.05;;
48034;SDS011;33812;46.480;6.834;2024-02-23T10:21:34;3.67;;;1.83;;
48034;SDS011;33812;46.480;6.834;2024-02-23T10:25:36;3.50;;;1.05;;
48034;SDS011;33812;46.480;6.834;2024-02-23T10:29:38;3.58;;;1.10;;
48034;SDS011;33812;46.480;6.834;2024-02-23T10:33:41;2.65;;;1.02;;
48034;SDS011;33812;46.480;6.834;2024-02-23T10:37:47;2.40;;;1.05;;
48034;SDS011;33812;46.480;6.834;2024-02-23T10:41:54;2.45;;;0.82;;
48034;SDS011;33812;46.480;6.834;2024-02-23T10:45:58;2.20;;;1.02;;
48034;SDS011;33812;46.480;6.834;2024-02-23T10:50:04;2.40;;;1.00;;
48034;SDS011;33812;46.480;6.834;2024-02-23T10:54:08;3.10;;;1.10;;
48034;SDS011;33812;46.480;6.834;2024-02-23T10:58:11;3.45;;;0.85;;
48034;SDS011;33812;46.480;6.834;2024-02-23T11:02:13;2.10;;;0.55;;
48034;SDS011;33812;46.480;6.834;2024-02-23T11:06:23;1.20;;;0.60;;
48034;SDS011;33812;46.480;6.834;2024-02-23T11:10:28;2.53;;;1.08;;
48034;SDS011;33812;46.480;6.834;2024-02-23T11:14:30;1.58;;;0.60;;
48034;SDS011;33812;46.480;6.834;2024-02-23T11:18:33;1.13;;;0.63;;
48034;SDS011;33812;46.480;6.834;2024-02-23T11:22:38;1.45;;;0.60;;
48034;SDS011;33812;46.480;6.834;2024-02-23T11:26:39;0.95;;;0.50;;
48034;SDS011;33812;46.480;6.834;2024-02-23T11:30:43;2.08;;;1.00;;
48034;SDS011;33812;46.480;6.834;2024-02-23T11:34:54;1.75;;;0.73;;
48034;SDS011;33812;46.480;6.834;2024-02-23T11:38:58;1.52;;;0.65;;
48034;SDS011;33812;46.480;6.834;2024-02-23T11:43:01;1.48;;;0.50;;
48034;SDS011;33812;46.480;6.834;2024-02-23T11:47:04;0.82;;;0.50;;
48034;SDS011;33812;46.480;6.834;2024-02-23T11:51:06;1.85;;;0.70;;
48034;SDS011;33812;46.480;6.834;2024-02-23T11:55:09;0.85;;;0.65;;
48034;SDS011;33812;46.480;6.834;2024-02-23T11:59:11;1.95;;;1.02;;
48034;SDS011;33812;46.480;6.834;2024-02-23T12:03:14;2.03;;;0.60;;
48034;SDS011;33812;46.480;6.834;2024-02-23T12:07:16;1.08;;;0.60;;
48034;SDS011;33812;46.480;6.834;2024-02-23T12:11:21;1.20;;;0.65;;
48034;SDS011;33812;46.480;6.834;2024-02-23T12:15:22;1.95;;;0.60;;
48034;SDS011;33812;46.480;6.834;2024-02-23T12:19:24;0.90;;;0.43;;
48034;SDS011;33812;46.480;6.834;2024-02-23T12:23:26;1.35;;;0.50;;
48034;SDS011;33812;46.480;6.834;2024-02-23T12:27:29;0.70;;;0.50;;
48034;SDS011;33812;46.480;6.834;2024-02-23T12:31:32;0.82;;;0.50;;
48034;SDS011;33812;46.480;6.834;2024-02-23T12:35:34;1.00;;;0.60;;
48034;SDS011;33812;46.480;6.834;2024-02-23T12:39:36;1.23;;;0.63;;
48034;SDS011;33812;46.480;6.834;2024-02-23T12:43:39;0.80;;;0.50;;
48034;SDS011;33812;46.480;6.834;2024-02-23T12:47:41;2.42;;;0.60;;
48034;SDS011;33812;46.480;6.834;2024-02-23T12:51:43;1.40;;;0.57;;
48034;SDS011;33812;46.480;6.834;2024-02-23T12:55:44;4.45;;;0.70;;
48034;SDS011;33812;46.480;6.834;2024-02-23T12:59:47;2.50;;;0.45;;
48034;SDS011;33812;46.480;6.834;2024-02-23T13:03:49;3.13;;;0.55;;
48034;SDS011;33812;46.480;6.834;2024-02-23T13:07:51;1.65;;;0.50;;
48034;SDS011;33812;46.480;6.834;2024-02-23T13:11:53;1.35;;;0.73;;
48034;SDS011;33812;46.480;6.834;2024-02-23T13:15:56;0.30;;;0.30;;
48034;SDS011;33812;46.480;6.834;2024-02-23T13:19:58;1.00;;;0.45;;
48034;SDS011;33812;46.480;6.834;2024-02-23T13:23:59;3.33;;;0.57;;
48034;SDS011;33812;46.480;6.834;2024-02-23T13:28:01;2.53;;;0.40;;
48034;SDS011;33812;46.480;6.834;2024-02-23T13:32:06;1.55;;;0.60;;
48034;SDS011;33812;46.480;6.834;2024-02-23T13:36:08;1.43;;;0.63;;
48034;SDS011;33812;46.480;6.834;2024-02-23T13:40:10;0.52;;;0.40;;
48034;SDS011;33812;46.480;6.834;2024-02-23T13:44:12;0.85;;;0.50;;
48034;SDS011;33812;46.480;6.834;2024-02-23T13:48:15;0.73;;;0.45;;
48034;SDS011;33812;46.480;6.834;2024-02-23T13:52:18;0.68;;;0.30;;
48034;SDS011;33812;46.480;6.834;2024-02-23T13:56:20;0.47;;;0.40;;
48034;SDS011;33812;46.480;6.834;2024-02-23T14:00:22;0.88;;;0.50;;
48034;SDS011;33812;46.480;6.834;2024-02-23T14:04:25;2.35;;;0.60;;
48034;SDS011;33812;46.480;6.834;2024-02-23T14:08:27;1.35;;;0.60;;
48034;SDS011;33812;46.480;6.834;2024-02-23T14:12:28;1.88;;;0.45;;
48034;SDS011;33812;46.480;6.834;2024-02-23T14:16:30;1.25;;;0.50;;
48034;SDS011;33812;46.480;6.834;2024-02-23T14:20:34;0.80;;;0.43;;
48034;SDS011;33812;46.480;6.834;2024-02-23T14:24:35;0.47;;;0.30;;
48034;SDS011;33812;46.480;6.834;2024-02-23T14:28:37;0.68;;;0.30;;
48034;SDS011;33812;46.480;6.834;2024-02-23T14:32:39;1.10;;;0.50;;
48034;SDS011;33812;46.480;6.834;2024-02-23T14:36:43;1.42;;;0.50;;
48034;SDS011;33812;46.480;6.834;2024-02-23T14:40:45;2.38;;;0.30;;
48034;SDS011;33812;46.480;6.834;2024-02-23T14:44:47;4.93;;;0.50;;
48034;SDS011;33812;46.480;6.834;2024-02-23T14:48:50;4.43;;;0.40;;
48034;SDS011;33812;46.480;6.834;2024-02-23T14:52:54;1.60;;;0.50;;
48034;SDS011;33812;46.480;6.834;2024-02-23T14:56:56;0.95;;;0.40;;
48034;SDS011;33812;46.480;6.834;2024-02-23T15:00:58;0.80;;;0.40;;
48034;SDS011;33812;46.480;6.834;2024-02-23T15:05:00;1.00;;;0.40;;
48034;SDS011;33812;46.480;6.834;2024-02-23T15:09:03;1.40;;;0.70;;
48034;SDS011;33812;46.480;6.834;2024-02-23T15:13:05;1.85;;;0.75;;
48034;SDS011;33812;46.480;6.834;2024-02-23T15:17:06;1.40;;;0.65;;
48034;SDS011;33812;46.480;6.834;2024-02-23T15:21:08;0.60;;;0.40;;
48034;SDS011;33812;46.480;6.834;2024-02-23T15:25:13;1.58;;;0.52;;
48034;SDS011;33812;46.480;6.834;2024-02-23T15:29:15;1.83;;;0.40;;
48034;SDS011;33812;46.480;6.834;2024-02-23T15:33:18;1.33;;;0.57;;
48034;SDS011;33812;46.480;6.834;2024-02-23T15:37:20;1.08;;;0.55;;
48034;SDS011;33812;46.480;6.834;2024-02-23T15:41:23;0.65;;;0.40;;
48034;SDS011;33812;46.480;6.834;2024-02-23T15:45:25;0.75;;;0.30;;
48034;SDS011;33812;46.480;6.834;2024-02-23T15:49:27;2.28;;;0.60;;
48034;SDS011;33812;46.480;6.834;2024-02-23T15:53:28;0.60;;;0.40;;
48034;SDS011;33812;46.480;6.834;2024-02-23T15:57:32;2.47;;;0.50;;
48034;SDS011;33812;46.480;6.834;2024-02-23T16:01:33;0.80;;;0.50;;
48034;SDS011;33812;46.480;6.834;2024-02-23T16:05:36;0.70;;;0.40;;
48034;SDS011;33812;46.480;6.834;2024-02-23T16:09:38;0.70;;;0.50;;
48034;SDS011;33812;46.480;6.834;2024-02-23T16:13:41;0.65;;;0.47;;
48034;SDS011;33812;46.480;6.834;2024-02-23T16:17:43;0.60;;;0.30;;
48034;SDS011;33812;46.480;6.834;2024-02-23T16:21:45;0.43;;;0.35;;
48034;SDS011;33812;46.480;6.834;2024-02-23T16:25:48;0.63;;;0.40;;
48034;SDS011;33812;46.480;6.834;2024-02-23T16:29:52;1.38;;;0.60;;
48034;SDS011;33812;46.480;6.834;2024-02-23T16:33:53;0.95;;;0.50;;
48034;SDS011;33812;46.480;6.834;2024-02-23T16:37:55;0.77;;;0.60;;
48034;SDS011;33812;46.480;6.834;2024-02-23T16:41:57;0.68;;;0.30;;
48034;SDS011;33812;46.480;6.834;2024-02-23T16:46:00;1.00;;;0.40;;
48034;SDS011;33812;46.480;6.834;2024-02-23T16:50:03;0.32;;;0.30;;
48034;SDS011;33812;46.480;6.834;2024-02-23T16:54:05;1.38;;;0.70;;
48034;SDS011;33812;46.480;6.834;2024-02-23T16:58:06;1.33;;;0.60;;
48034;SDS011;33812;46.480;6.834;2024-02-23T17:02:10;3.22;;;0.93;;
48034;SDS011;33812;46.480;6.834;2024-02-23T17:06:12;1.45;;;0.90;;
48034;SDS011;33812;46.480;6.834;2024-02-23T17:10:13;3.17;;;0.90;;
48034;SDS011;33812;46.480;6.834;2024-02-23T17:14:16;7.00;;;0.80;;
48034;SDS011;33812;46.480;6.834;2024-02-23T17:18:20;4.53;;;0.70;;
48034;SDS011;33812;46.480;6.834;2024-02-23T17:22:22;10.32;;;1.67;;
48034;SDS011;33812;46.480;6.834;2024-02-23T17:26:24;187.55;;;30.98;;
48034;SDS011;33812;46.480;6.834;2024-02-23T17:30:26;65.07;;;12.25;;
48034;SDS011;33812;46.480;6.834;2024-02-23T17:34:29;61.70;;;10.93;;
48034;SDS011;33812;46.480;6.834;2024-02-23T17:38:31;55.13;;;10.38;;
48034;SDS011;33812;46.480;6.834;2024-02-23T17:42:33;47.38;;;9.02;;
48034;SDS011;33812;46.480;6.834;2024-02-23T17:46:35;42.38;;;7.95;;
48034;SDS011;33812;46.480;6.834;2024-02-23T17:50:38;28.83;;;7.60;;
48034;SDS011;33812;46.480;6.834;2024-02-23T17:54:40;28.65;;;6.13;;
48034;SDS011;33812;46.480;6.834;2024-02-23T17:58:42;28.25;;;6.47;;
48034;SDS011;33812;46.480;6.834;2024-02-23T18:02:44;28.15;;;6.30;;
48034;SDS011;33812;46.480;6.834;2024-02-23T18:06:47;27.02;;;6.30;;
48034;SDS011;33812;46.480;6.834;2024-02-23T18:10:50;27.75;;;6.75;;
48034;SDS011;33812;46.480;6.834;2024-02-23T18:14:52;21.67;;;5.57;;
48034;SDS011;33812;46.480;6.834;2024-02-23T18:18:53;27.02;;;5.38;;
48034;SDS011;33812;46.480;6.834;2024-02-23T18:22:59;23.90;;;4.68;;
48034;SDS011;33812;46.480;6.834;2024-02-23T18:27:01;23.60;;;4.95;;
48034;SDS011;33812;46.480;6.834;2024-02-23T18:31:03;36.05;;;4.57;;
48034;SDS011;33812;46.480;6.834;2024-02-23T18:35:05;27.50;;;5.38;;
48034;SDS011;33812;46.480;6.834;2024-02-23T18:39:10;18.40;;;4.22;;
48034;SDS011;33812;46.480;6.834;2024-02-23T18:43:11;14.68;;;2.97;;
48034;SDS011;33812;46.480;6.834;2024-02-23T18:47:14;11.98;;;3.60;;
48034;SDS011;33812;46.480;6.834;2024-02-23T18:51:16;14.10;;;2.97;;
48034;SDS011;33812;46.480;6.834;2024-02-23T18:55:21;16.63;;;3.65;;
48034;SDS011;33812;46.480;6.834;2024-02-23T18:59:23;13.13;;;3.40;;
48034;SDS011;33812;46.480;6.834;2024-02-23T19:03:25;15.52;;;3.83;;
48034;SDS011;33812;46.480;6.834;2024-02-23T19:07:26;14.18;;;3.53;;
48034;SDS011;33812;46.480;6.834;2024-02-23T19:11:29;15.88;;;3.75;;
48034;SDS011;33812;46.480;6.834;2024-02-23T19:15:31;9.77;;;2.85;;
48034;SDS011;33812;46.480;6.834;2024-02-23T19:19:33;16.33;;;3.20;;
48034;SDS011;33812;46.480;6.834;2024-02-23T19:23:36;11.70;;;2.70;;
48034;SDS011;33812;46.480;6.834;2024-02-23T19:27:39;11.13;;;2.95;;
48034;SDS011;33812;46.480;6.834;2024-02-23T19:31:41;7.75;;;2.45;;
48034;SDS011;33812;46.480;6.834;2024-02-23T19:35:43;12.25;;;3.20;;
48034;SDS011;33812;46.480;6.834;2024-02-23T19:39:45;12.10;;;2.30;;
48034;SDS011;33812;46.480;6.834;2024-02-23T19:43:48;9.65;;;2.55;;
48034;SDS011;33812;46.480;6.834;2024-02-23T19:47:50;7.50;;;2.55;;
48034;SDS011;33812;46.480;6.834;2024-02-23T19:51:52;10.63;;;2.58;;
48034;SDS011;33812;46.480;6.834;2024-02-23T19:55:54;9.50;;;2.22;;
48034;SDS011;33812;46.480;6.834;2024-02-23T19:59:59;10.63;;;2.70;;
48034;SDS011;33812;46.480;6.834;2024-02-23T20:04:03;8.63;;;2.20;;
48034;SDS011;33812;46.480;6.834;2024-02-23T20:08:05;7.10;;;1.80;;
48034;SDS011;33812;46.480;6.834;2024-02-23T20:12:08;6.20;;;1.92;;
48034;SDS011;33812;46.480;6.834;2024-02-23T20:16:12;4.47;;;2.17;;
48034;SDS011;33812;46.480;6.834;2024-02-23T20:20:13;6.50;;;2.13;;
48034;SDS011;33812;46.480;6.834;2024-02-23T20:24:17;5.57;;;2.00;;
48034;SDS011;33812;46.480;6.834;2024-02-23T20:28:19;7.32;;;1.83;;
48034;SDS011;33812;46.480;6.834;2024-02-23T20:32:22;6.28;;;2.08;;
48034;SDS011;33812;46.480;6.834;2024-02-23T20:36:25;12.93;;;2.00;;
48034;SDS011;33812;46.480;6.834;2024-02-23T20:40:27;11.75;;;2.00;;
48034;SDS011;33812;46.480;6.834;2024-02-23T20:44:29;14.98;;;2.38;;
48034;SDS011;33812;46.480;6.834;2024-02-23T20:48:32;10.48;;;1.83;;
48034;SDS011;33812;46.480;6.834;2024-02-23T20:52:34;9.30;;;2.10;;
48034;SDS011;33812;46.480;6.834;2024-02-23T20:56:37;10.70;;;2.75;;
48034;SDS011;33812;46.480;6.834;2024-02-23T21:00:38;6.95;;;2.20;;
48034;SDS011;33812;46.480;6.834;2024-02-23T21:04:41;4.00;;;1.75;;
48034;SDS011;33812;46.480;6.834;2024-02-23T21:08:44;15.48;;;2.47;;
48034;SDS011;33812;46.480;6.834;2024-02-23T21:12:48;22.40;;;2.90;;
48034;SDS011;33812;46.480;6.834;2024-02-23T21:16:50;20.40;;;3.47;;
48034;SDS011;33812;46.480;6.834;2024-02-23T21:20:53;15.98;;;2.92;;
48034;SDS011;33812;46.480;6.834;2024-02-23T21:24:55;12.73;;;2.67;;
48034;SDS011;33812;46.480;6.834;2024-02-23T21:28:57;15.40;;;2.38;;
48034;SDS011;33812;46.480;6.834;2024-02-23T21:32:59;9.80;;;2.67;;
48034;SDS011;33812;46.480;6.834;2024-02-23T21:37:04;10.85;;;2.97;;
48034;SDS011;33812;46.480;6.834;2024-02-23T21:41:08;12.32;;;2.58;;
48034;SDS011;33812;46.480;6.834;2024-02-23T21:45:10;13.73;;;3.60;;
48034;SDS011;33812;46.480;6.834;2024-02-23T21:49:12;10.43;;;2.15;;
48034;SDS011;33812;46.480;6.834;2024-02-23T21:53:15;8.68;;;2.47;;
48034;SDS011;33812;46.480;6.834;2024-02-23T21:57:22;9.30;;;2.13;;
48034;SDS011;33812;46.480;6.834;2024-02-23T22:01:25;7.13;;;2.13;;
48034;SDS011;33812;46.480;6.834;2024-02-23T22:05:27;8.00;;;2.30;;
48034;SDS011;33812;46.480;6.834;2024-02-23T22:09:30;6.55;;;1.80;;
48034;SDS011;33812;46.480;6.834;2024-02-23T22:13:32;5.75;;;1.80;;
48034;SDS011;33812;46.480;6.834;2024-02-23T22:17:36;7.65;;;2.10;;
48034;SDS011;33812;46.480;6.834;2024-02-23T22:21:39;8.20;;;1.90;;
48034;SDS011;33812;46.480;6.834;2024-02-23T22:25:43;8.02;;;2.05;;
48034;SDS011;33812;46.480;6.834;2024-02-23T22:29:45;3.90;;;1.38;;
48034;SDS011;33812;46.480;6.834;2024-02-23T22:33:47;9.38;;;1.80;;
48034;SDS011;33812;46.480;6.834;2024-02-23T22:37:55;3.97;;;1.50;;
48034;SDS011;33812;46.480;6.834;2024-02-23T22:41:59;6.32;;;1.80;;
48034;SDS011;33812;46.480;6.834;2024-02-23T22:46:01;6.38;;;1.75;;
48034;SDS011;33812;46.480;6.834;2024-02-23T22:50:03;5.20;;;1.40;;
48034;SDS011;33812;46.480;6.834;2024-02-23T22:54:05;5.05;;;1.27;;
48034;SDS011;33812;46.480;6.834;2024-02-23T22:58:08;3.45;;;1.42;;
48034;SDS011;33812;46.480;6.834;2024-02-23T23:02:11;3.47;;;1.40;;
48034;SDS011;33812;46.480;6.834;2024-02-23T23:06:13;6.18;;;1.52;;
48034;SDS011;33812;46.480;6.834;2024-02-23T23:10:15;3.78;;;1.02;;
48034;SDS011;33812;46.480;6.834;2024-02-23T23:14:18;3.58;;;1.30;;
48034;SDS011;33812;46.480;6.834;2024-02-23T23:18:20;2.67;;;1.13;;
48034;SDS011;33812;46.480;6.834;2024-02-23T23:22:22;4.38;;;1.15;;
48034;SDS011;33812;46.480;6.834;2024-02-23T23:26:24;4.65;;;1.25;;
48034;SDS011;33812;46.480;6.834;2024-02-23T23:30:27;2.65;;;0.90;;
48034;SDS011;33812;46.480;6.834;2024-02-23T23:34:29;2.22;;;0.90;;
48034;SDS011;33812;46.480;6.834;2024-02-23T23:38:31;3.65;;;1.30;;
48034;SDS011;33812;46.480;6.834;2024-02-23T23:42:33;3.85;;;0.98;;
48034;SDS011;33812;46.480;6.834;2024-02-23T23:46:36;2.47;;;1.13;;
48034;SDS011;33812;46.480;6.834;2024-02-23T23:50:38;1.52;;;0.75;;
48034;SDS011;33812;46.480;6.834;2024-02-23T23:54:40;2.05;;;0.90;;
48034;SDS011;33812;46.480;6.834;2024-02-23T23:58:42;3.15;;;1.00;;
